Terminal Aerodrome Forecast
Issued by NWS Charleston, WV

Current Version | Previous Version | Graphics & Text | Print | Product List | Glossary On
Versions: 1 2 3 4 5 6 7 8 9 10 11 12 13 14 15 16 17 18 19 20 21 22 23 24 25 26 27 28 29 30
000
FTUS41 KRLX 222151 AAA
TAFEKN
TAF AMD
KEKN 222151Z 2222/2318 27009KT 6SM -SHRA VCTS BKN050CB
      TEMPO 2222/2224 2SM TSRA BKN030CB
     FM230000 22007KT P6SM VCTS BKN050CB
      TEMPO 2300/2303 2SM TSRA OVC025CB
     FM230300 23006KT 2SM SHRA VCTS BKN010CB
     FM230800 24005KT 5SM SHRA OVC025=

USA.gov is the U.S. government's official web portal to all federal, state and local government web resources and services.